sensor_id;sensor_type;location;lat;lon;timestamp;P1;durP1;ratioP1;P2;durP2;ratioP2
2049;SDS011;8478;49.208;8.806;2023-03-09T00:20:46;4.23;;;3.83;;
2049;SDS011;8478;49.208;8.806;2023-03-09T01:13:06;3.10;;;3.00;;
2049;SDS011;8478;49.208;8.806;2023-03-09T01:15:32;3.40;;;3.00;;
2049;SDS011;8478;49.208;8.806;2023-03-09T01:17:57;2.90;;;2.80;;
2049;SDS011;8478;49.208;8.806;2023-03-09T01:20:23;3.07;;;2.87;;
2049;SDS011;8478;49.208;8.806;2023-03-09T02:35:50;3.53;;;3.33;;
2049;SDS011;8478;49.208;8.806;2023-03-09T02:38:20;3.60;;;3.40;;
2049;SDS011;8478;49.208;8.806;2023-03-09T02:40:46;3.30;;;3.00;;
2049;SDS011;8478;49.208;8.806;2023-03-09T03:01:33;2.80;;;2.60;;
2049;SDS011;8478;49.208;8.806;2023-03-09T03:21:04;3.20;;;3.00;;
2049;SDS011;8478;49.208;8.806;2023-03-09T03:44:19;3.40;;;2.90;;
2049;SDS011;8478;49.208;8.806;2023-03-09T03:46:44;2.60;;;2.50;;
2049;SDS011;8478;49.208;8.806;2023-03-09T03:49:10;3.17;;;2.97;;
2049;SDS011;8478;49.208;8.806;2023-03-09T03:51:36;2.70;;;2.60;;
2049;SDS011;8478;49.208;8.806;2023-03-09T07:16:15;5.20;;;4.77;;
2049;SDS011;8478;49.208;8.806;2023-03-09T07:18:41;5.17;;;4.73;;
2049;SDS011;8478;49.208;8.806;2023-03-09T07:21:08;7.03;;;5.40;;
2049;SDS011;8478;49.208;8.806;2023-03-09T08:41:16;6.23;;;4.53;;
2049;SDS011;8478;49.208;8.806;2023-03-09T10:50:34;4.50;;;4.20;;
2049;SDS011;8478;49.208;8.806;2023-03-09T18:00:55;7.00;;;6.43;;
2049;SDS011;8478;49.208;8.806;2023-03-09T18:03:21;8.17;;;7.37;;
2049;SDS011;8478;49.208;8.806;2023-03-09T18:05:47;8.57;;;6.50;;
2049;SDS011;8478;49.208;8.806;2023-03-09T18:08:13;6.93;;;6.17;;
2049;SDS011;8478;49.208;8.806;2023-03-09T18:10:42;7.87;;;7.23;;
2049;SDS011;8478;49.208;8.806;2023-03-09T18:13:08;9.97;;;8.90;;
2049;SDS011;8478;49.208;8.806;2023-03-09T18:15:34;9.30;;;8.40;;
2049;SDS011;8478;49.208;8.806;2023-03-09T18:18:01;9.70;;;8.33;;
2049;SDS011;8478;49.208;8.806;2023-03-09T18:20:26;11.70;;;10.50;;
2049;SDS011;8478;49.208;8.806;2023-03-09T18:22:52;12.13;;;10.93;;
2049;SDS011;8478;49.208;8.806;2023-03-09T18:25:18;11.57;;;10.57;;
2049;SDS011;8478;49.208;8.806;2023-03-09T18:27:43;13.30;;;10.50;;
2049;SDS011;8478;49.208;8.806;2023-03-09T18:30:09;10.60;;;9.40;;
2049;SDS011;8478;49.208;8.806;2023-03-09T18:32:36;11.90;;;10.70;;
2049;SDS011;8478;49.208;8.806;2023-03-09T18:35:03;19.43;;;17.37;;
2049;SDS011;8478;49.208;8.806;2023-03-09T18:37:30;23.27;;;18.50;;
2049;SDS011;8478;49.208;8.806;2023-03-09T18:39:57;22.17;;;17.30;;
2049;SDS011;8478;49.208;8.806;2023-03-09T18:42:24;16.50;;;13.30;;
2049;SDS011;8478;49.208;8.806;2023-03-09T18:44:54;13.47;;;12.03;;
2049;SDS011;8478;49.208;8.806;2023-03-09T18:47:23;14.37;;;12.30;;
2049;SDS011;8478;49.208;8.806;2023-03-09T18:49:53;21.33;;;16.80;;
2049;SDS011;8478;49.208;8.806;2023-03-09T18:52:20;18.70;;;16.10;;
2049;SDS011;8478;49.208;8.806;2023-03-09T18:54:49;18.40;;;15.33;;
2049;SDS011;8478;49.208;8.806;2023-03-09T18:57:16;20.57;;;18.30;;
2049;SDS011;8478;49.208;8.806;2023-03-09T18:59:43;22.67;;;18.97;;
2049;SDS011;8478;49.208;8.806;2023-03-09T19:02:10;18.57;;;16.67;;
2049;SDS011;8478;49.208;8.806;2023-03-09T19:04:37;18.70;;;15.73;;
2049;SDS011;8478;49.208;8.806;2023-03-09T19:07:03;17.47;;;15.83;;
2049;SDS011;8478;49.208;8.806;2023-03-09T19:09:28;18.27;;;15.90;;
2049;SDS011;8478;49.208;8.806;2023-03-09T19:11:54;18.63;;;14.90;;
2049;SDS011;8478;49.208;8.806;2023-03-09T19:14:20;17.60;;;15.73;;
2049;SDS011;8478;49.208;8.806;2023-03-09T19:16:46;17.30;;;14.77;;
2049;SDS011;8478;49.208;8.806;2023-03-09T19:19:11;18.57;;;13.90;;
2049;SDS011;8478;49.208;8.806;2023-03-09T19:21:37;15.67;;;14.13;;
2049;SDS011;8478;49.208;8.806;2023-03-09T19:24:04;16.90;;;13.90;;
2049;SDS011;8478;49.208;8.806;2023-03-09T19:26:31;18.50;;;15.67;;
2049;SDS011;8478;49.208;8.806;2023-03-09T19:28:58;17.93;;;15.73;;
2049;SDS011;8478;49.208;8.806;2023-03-09T19:31:25;18.20;;;14.80;;
2049;SDS011;8478;49.208;8.806;2023-03-09T19:33:53;15.93;;;14.43;;
2049;SDS011;8478;49.208;8.806;2023-03-09T19:36:20;22.03;;;19.73;;
2049;SDS011;8478;49.208;8.806;2023-03-09T19:38:48;22.17;;;19.80;;
2049;SDS011;8478;49.208;8.806;2023-03-09T19:41:16;20.10;;;18.07;;
2049;SDS011;8478;49.208;8.806;2023-03-09T19:43:42;17.50;;;15.70;;
2049;SDS011;8478;49.208;8.806;2023-03-09T19:46:12;18.03;;;16.13;;
2049;SDS011;8478;49.208;8.806;2023-03-09T19:48:39;20.23;;;18.23;;
2049;SDS011;8478;49.208;8.806;2023-03-09T19:53:54;18.63;;;16.73;;
2049;SDS011;8478;49.208;8.806;2023-03-09T19:56:24;20.53;;;18.43;;
2049;SDS011;8478;49.208;8.806;2023-03-09T19:58:52;17.13;;;15.53;;
2049;SDS011;8478;49.208;8.806;2023-03-09T20:01:30;19.57;;;17.90;;
2049;SDS011;8478;49.208;8.806;2023-03-09T20:03:56;18.07;;;16.37;;
2049;SDS011;8478;49.208;8.806;2023-03-09T20:06:25;18.70;;;17.07;;
2049;SDS011;8478;49.208;8.806;2023-03-09T20:08:51;19.53;;;17.77;;
2049;SDS011;8478;49.208;8.806;2023-03-09T20:11:20;17.77;;;15.87;;
2049;SDS011;8478;49.208;8.806;2023-03-09T20:13:47;16.43;;;15.03;;
2049;SDS011;8478;49.208;8.806;2023-03-09T20:16:16;18.77;;;16.87;;
2049;SDS011;8478;49.208;8.806;2023-03-09T20:18:43;19.23;;;16.00;;
2049;SDS011;8478;49.208;8.806;2023-03-09T20:21:10;16.50;;;14.93;;
2049;SDS011;8478;49.208;8.806;2023-03-09T20:23:37;16.30;;;14.77;;
2049;SDS011;8478;49.208;8.806;2023-03-09T20:26:05;16.40;;;14.90;;
2049;SDS011;8478;49.208;8.806;2023-03-09T20:28:32;15.50;;;13.90;;
2049;SDS011;8478;49.208;8.806;2023-03-09T20:30:59;15.07;;;13.57;;
2049;SDS011;8478;49.208;8.806;2023-03-09T20:33:31;18.13;;;14.00;;
2049;SDS011;8478;49.208;8.806;2023-03-09T20:35:57;15.20;;;13.60;;
2049;SDS011;8478;49.208;8.806;2023-03-09T20:38:25;15.67;;;14.07;;
2049;SDS011;8478;49.208;8.806;2023-03-09T20:40:51;14.00;;;12.70;;
2049;SDS011;8478;49.208;8.806;2023-03-09T20:43:17;12.90;;;11.80;;
2049;SDS011;8478;49.208;8.806;2023-03-09T20:45:43;14.57;;;13.17;;
2049;SDS011;8478;49.208;8.806;2023-03-09T20:48:09;12.77;;;11.10;;
2049;SDS011;8478;49.208;8.806;2023-03-09T20:50:35;14.10;;;11.30;;
2049;SDS011;8478;49.208;8.806;2023-03-09T20:53:03;13.63;;;12.10;;
2049;SDS011;8478;49.208;8.806;2023-03-09T20:55:29;12.17;;;10.97;;
2049;SDS011;8478;49.208;8.806;2023-03-09T20:57:55;12.60;;;11.47;;
2049;SDS011;8478;49.208;8.806;2023-03-09T21:00:21;12.57;;;11.37;;
2049;SDS011;8478;49.208;8.806;2023-03-09T21:02:47;12.37;;;11.23;;
2049;SDS011;8478;49.208;8.806;2023-03-09T21:05:14;13.03;;;11.77;;
2049;SDS011;8478;49.208;8.806;2023-03-09T21:07:39;12.80;;;11.80;;
2049;SDS011;8478;49.208;8.806;2023-03-09T21:10:06;11.10;;;10.20;;
2049;SDS011;8478;49.208;8.806;2023-03-09T21:12:32;12.50;;;11.23;;
2049;SDS011;8478;49.208;8.806;2023-03-09T21:14:59;14.00;;;12.57;;
2049;SDS011;8478;49.208;8.806;2023-03-09T21:17:25;12.70;;;11.50;;
2049;SDS011;8478;49.208;8.806;2023-03-09T21:19:55;11.83;;;10.73;;
2049;SDS011;8478;49.208;8.806;2023-03-09T21:22:21;10.53;;;9.53;;
2049;SDS011;8478;49.208;8.806;2023-03-09T21:24:48;11.97;;;10.97;;
2049;SDS011;8478;49.208;8.806;2023-03-09T21:27:15;10.53;;;9.63;;
2049;SDS011;8478;49.208;8.806;2023-03-09T21:29:41;11.43;;;10.43;;
2049;SDS011;8478;49.208;8.806;2023-03-09T21:32:07;10.63;;;9.50;;
2049;SDS011;8478;49.208;8.806;2023-03-09T21:34:32;11.27;;;10.23;;
2049;SDS011;8478;49.208;8.806;2023-03-09T21:37:01;10.87;;;9.80;;
2049;SDS011;8478;49.208;8.806;2023-03-09T21:39:31;10.87;;;9.97;;
2049;SDS011;8478;49.208;8.806;2023-03-09T21:41:58;11.43;;;10.40;;
2049;SDS011;8478;49.208;8.806;2023-03-09T21:44:24;9.90;;;9.10;;
2049;SDS011;8478;49.208;8.806;2023-03-09T21:46:50;11.17;;;10.07;;
2049;SDS011;8478;49.208;8.806;2023-03-09T21:49:16;9.40;;;8.60;;
2049;SDS011;8478;49.208;8.806;2023-03-09T21:51:42;9.60;;;8.70;;
2049;SDS011;8478;49.208;8.806;2023-03-09T21:54:08;10.90;;;8.93;;
2049;SDS011;8478;49.208;8.806;2023-03-09T21:56:34;9.47;;;8.77;;
2049;SDS011;8478;49.208;8.806;2023-03-09T21:59:00;8.83;;;8.13;;
2049;SDS011;8478;49.208;8.806;2023-03-09T22:01:26;9.70;;;8.63;;
2049;SDS011;8478;49.208;8.806;2023-03-09T22:03:53;9.17;;;8.47;;
2049;SDS011;8478;49.208;8.806;2023-03-09T22:06:20;7.77;;;7.17;;
2049;SDS011;8478;49.208;8.806;2023-03-09T22:08:51;7.80;;;7.20;;
2049;SDS011;8478;49.208;8.806;2023-03-09T22:11:17;8.57;;;7.87;;
2049;SDS011;8478;49.208;8.806;2023-03-09T22:13:44;7.37;;;6.67;;
2049;SDS011;8478;49.208;8.806;2023-03-09T22:16:14;7.57;;;7.00;;
2049;SDS011;8478;49.208;8.806;2023-03-09T22:18:44;8.37;;;7.77;;
2049;SDS011;8478;49.208;8.806;2023-03-09T22:21:10;7.77;;;7.07;;
2049;SDS011;8478;49.208;8.806;2023-03-09T22:23:36;7.40;;;6.80;;
2049;SDS011;8478;49.208;8.806;2023-03-09T22:26:05;7.97;;;7.27;;
2049;SDS011;8478;49.208;8.806;2023-03-09T22:28:31;8.13;;;7.33;;
2049;SDS011;8478;49.208;8.806;2023-03-09T22:30:57;8.17;;;7.37;;
2049;SDS011;8478;49.208;8.806;2023-03-09T22:33:23;7.70;;;6.83;;
2049;SDS011;8478;49.208;8.806;2023-03-09T22:35:49;7.30;;;6.70;;
2049;SDS011;8478;49.208;8.806;2023-03-09T22:38:24;7.03;;;6.40;;
2049;SDS011;8478;49.208;8.806;2023-03-09T22:40:50;6.63;;;6.10;;
2049;SDS011;8478;49.208;8.806;2023-03-09T22:43:16;6.13;;;5.60;;
2049;SDS011;8478;49.208;8.806;2023-03-09T22:45:41;6.30;;;5.70;;
2049;SDS011;8478;49.208;8.806;2023-03-09T22:48:07;5.83;;;5.30;;
2049;SDS011;8478;49.208;8.806;2023-03-09T22:50:32;5.83;;;5.30;;
2049;SDS011;8478;49.208;8.806;2023-03-09T22:52:58;6.07;;;5.57;;
2049;SDS011;8478;49.208;8.806;2023-03-09T22:55:24;6.97;;;5.30;;
2049;SDS011;8478;49.208;8.806;2023-03-09T22:57:49;5.93;;;5.40;;
2049;SDS011;8478;49.208;8.806;2023-03-09T23:00:15;6.20;;;5.70;;
2049;SDS011;8478;49.208;8.806;2023-03-09T23:02:41;6.27;;;5.40;;
2049;SDS011;8478;49.208;8.806;2023-03-09T23:05:10;5.30;;;4.80;;
2049;SDS011;8478;49.208;8.806;2023-03-09T23:07:37;5.00;;;4.60;;
2049;SDS011;8478;49.208;8.806;2023-03-09T23:10:02;5.80;;;5.30;;
2049;SDS011;8478;49.208;8.806;2023-03-09T23:12:28;5.77;;;5.13;;
2049;SDS011;8478;49.208;8.806;2023-03-09T23:14:54;6.53;;;4.43;;
2049;SDS011;8478;49.208;8.806;2023-03-09T23:17:20;6.47;;;4.70;;
2049;SDS011;8478;49.208;8.806;2023-03-09T23:19:45;10.47;;;4.93;;
2049;SDS011;8478;49.208;8.806;2023-03-09T23:22:11;6.87;;;5.10;;
2049;SDS011;8478;49.208;8.806;2023-03-09T23:24:36;5.10;;;4.70;;
2049;SDS011;8478;49.208;8.806;2023-03-09T23:27:04;3.97;;;3.67;;
2049;SDS011;8478;49.208;8.806;2023-03-09T23:29:30;7.00;;;4.13;;
2049;SDS011;8478;49.208;8.806;2023-03-09T23:31:56;4.60;;;4.20;;
2049;SDS011;8478;49.208;8.806;2023-03-09T23:34:22;4.30;;;4.00;;
2049;SDS011;8478;49.208;8.806;2023-03-09T23:36:47;4.57;;;4.17;;
2049;SDS011;8478;49.208;8.806;2023-03-09T23:39:13;3.63;;;3.33;;
2049;SDS011;8478;49.208;8.806;2023-03-09T23:41:39;4.50;;;3.60;;
